Brigantine City, New Jersey
Current Conditions -  °F | °C
As of 2:54 AM on Friday 19 Dec 2014 (Local Time) from KACY Reporting Station
Clear Clear  
Wind Chill: 28°   Ceiling: Unl
Heat Index: 35°   Visibility: 10mi
Dew Point: 25°   Wind: 9mph
Humidity: 67%   Direction: 280°W
Pressure: 30.03"   Gusts: NA
Location:  39.4065°N, 74.3772°W
Report Text: KACY 190754Z 28008KT 10SM CLR 02/M04 A3003 RMK AO2 SLP169 T00171039
Loading
Personal Weather Stations






























Interactive Weather Map New forecast layout! Learn more

10-Day Weather Forecast

Advertisements
Track Severe Weather on mobile